sensor_id;sensor_type;location;lat;lon;timestamp;P1;durP1;ratioP1;P2;durP2;ratioP2
1180;SDS011;579;52.046;8.532;2023-05-23T00:00:59;0.00;;;0.00;;
1180;SDS011;579;52.046;8.532;2023-05-23T00:03:25;0.10;;;0.10;;
1180;SDS011;579;52.046;8.532;2023-05-23T00:05:52;0.10;;;0.10;;
1180;SDS011;579;52.046;8.532;2023-05-23T00:08:20;0.00;;;0.00;;
1180;SDS011;579;52.046;8.532;2023-05-23T00:10:46;0.10;;;0.10;;
1180;SDS011;579;52.046;8.532;2023-05-23T00:13:13;0.10;;;0.10;;
1180;SDS011;579;52.046;8.532;2023-05-23T00:15:39;0.03;;;0.03;;
1180;SDS011;579;52.046;8.532;2023-05-23T00:20:58;0.10;;;0.10;;
1180;SDS011;579;52.046;8.532;2023-05-23T00:23:24;0.10;;;0.10;;
1180;SDS011;579;52.046;8.532;2023-05-23T00:25:53;0.10;;;0.10;;
1180;SDS011;579;52.046;8.532;2023-05-23T00:28:20;0.10;;;0.10;;
1180;SDS011;579;52.046;8.532;2023-05-23T00:30:46;0.10;;;0.10;;
1180;SDS011;579;52.046;8.532;2023-05-23T00:33:13;0.10;;;0.10;;
1180;SDS011;579;52.046;8.532;2023-05-23T00:35:40;0.10;;;0.10;;
1180;SDS011;579;52.046;8.532;2023-05-23T00:40:45;0.10;;;0.10;;
1180;SDS011;579;52.046;8.532;2023-05-23T00:43:12;0.10;;;0.10;;
1180;SDS011;579;52.046;8.532;2023-05-23T00:45:38;0.10;;;0.10;;
1180;SDS011;579;52.046;8.532;2023-05-23T00:48:05;0.00;;;0.00;;
1180;SDS011;579;52.046;8.532;2023-05-23T00:50:33;0.10;;;0.10;;
1180;SDS011;579;52.046;8.532;2023-05-23T00:53:00;0.10;;;0.10;;
1180;SDS011;579;52.046;8.532;2023-05-23T00:55:27;0.10;;;0.10;;
1180;SDS011;579;52.046;8.532;2023-05-23T00:57:54;0.10;;;0.10;;
1180;SDS011;579;52.046;8.532;2023-05-23T01:00:35;0.10;;;0.10;;
1180;SDS011;579;52.046;8.532;2023-05-23T01:03:03;0.10;;;0.10;;
1180;SDS011;579;52.046;8.532;2023-05-23T01:05:29;0.10;;;0.10;;
1180;SDS011;579;52.046;8.532;2023-05-23T01:07:55;0.10;;;0.10;;
1180;SDS011;579;52.046;8.532;2023-05-23T01:10:22;0.10;;;0.10;;
1180;SDS011;579;52.046;8.532;2023-05-23T01:12:55;0.10;;;0.10;;
1180;SDS011;579;52.046;8.532;2023-05-23T01:15:35;0.03;;;0.03;;
1180;SDS011;579;52.046;8.532;2023-05-23T01:20:53;0.10;;;0.10;;
1180;SDS011;579;52.046;8.532;2023-05-23T01:23:30;0.10;;;0.10;;
1180;SDS011;579;52.046;8.532;2023-05-23T01:26:37;0.10;;;0.10;;
1180;SDS011;579;52.046;8.532;2023-05-23T01:29:18;0.10;;;0.10;;
1180;SDS011;579;52.046;8.532;2023-05-23T01:31:51;0.10;;;0.10;;
1180;SDS011;579;52.046;8.532;2023-05-23T01:34:20;0.10;;;0.10;;
1180;SDS011;579;52.046;8.532;2023-05-23T01:36:48;0.10;;;0.10;;
1180;SDS011;579;52.046;8.532;2023-05-23T01:44:22;0.10;;;0.10;;
1180;SDS011;579;52.046;8.532;2023-05-23T01:46:48;0.10;;;0.10;;
1180;SDS011;579;52.046;8.532;2023-05-23T01:49:14;0.10;;;0.10;;
1180;SDS011;579;52.046;8.532;2023-05-23T01:51:42;0.00;;;0.00;;
1180;SDS011;579;52.046;8.532;2023-05-23T01:54:10;0.10;;;0.10;;
1180;SDS011;579;52.046;8.532;2023-05-23T01:56:37;0.10;;;0.10;;
1180;SDS011;579;52.046;8.532;2023-05-23T01:59:04;0.10;;;0.10;;
1180;SDS011;579;52.046;8.532;2023-05-23T02:04:08;0.10;;;0.10;;
1180;SDS011;579;52.046;8.532;2023-05-23T02:06:34;0.10;;;0.10;;
1180;SDS011;579;52.046;8.532;2023-05-23T02:09:00;0.10;;;0.10;;
1180;SDS011;579;52.046;8.532;2023-05-23T02:11:26;0.10;;;0.10;;
1180;SDS011;579;52.046;8.532;2023-05-23T02:13:52;0.10;;;0.10;;
1180;SDS011;579;52.046;8.532;2023-05-23T02:16:18;0.10;;;0.10;;
1180;SDS011;579;52.046;8.532;2023-05-23T02:18:45;0.10;;;0.10;;
1180;SDS011;579;52.046;8.532;2023-05-23T02:28:05;0.10;;;0.10;;
1180;SDS011;579;52.046;8.532;2023-05-23T02:30:31;0.10;;;0.10;;
1180;SDS011;579;52.046;8.532;2023-05-23T02:32:57;0.10;;;0.10;;
1180;SDS011;579;52.046;8.532;2023-05-23T02:35:23;0.10;;;0.10;;
1180;SDS011;579;52.046;8.532;2023-05-23T02:37:50;0.10;;;0.10;;
1180;SDS011;579;52.046;8.532;2023-05-23T02:40:16;0.10;;;0.10;;
1180;SDS011;579;52.046;8.532;2023-05-23T02:42:42;0.10;;;0.10;;
1180;SDS011;579;52.046;8.532;2023-05-23T02:45:09;0.10;;;0.10;;
1180;SDS011;579;52.046;8.532;2023-05-23T02:48:08;0.00;;;0.00;;
1180;SDS011;579;52.046;8.532;2023-05-23T02:50:35;0.10;;;0.10;;
1180;SDS011;579;52.046;8.532;2023-05-23T02:53:02;0.10;;;0.10;;
1180;SDS011;579;52.046;8.532;2023-05-23T02:55:28;0.00;;;0.00;;
1180;SDS011;579;52.046;8.532;2023-05-23T02:57:55;0.10;;;0.10;;
1180;SDS011;579;52.046;8.532;2023-05-23T03:00:22;0.10;;;0.10;;
1180;SDS011;579;52.046;8.532;2023-05-23T03:02:48;0.08;;;0.08;;
1180;SDS011;579;52.046;8.532;2023-05-23T03:05:15;0.10;;;0.10;;
1180;SDS011;579;52.046;8.532;2023-05-23T03:07:57;0.10;;;0.10;;
1180;SDS011;579;52.046;8.532;2023-05-23T03:10:24;0.10;;;0.10;;
1180;SDS011;579;52.046;8.532;2023-05-23T03:12:50;0.10;;;0.10;;
1180;SDS011;579;52.046;8.532;2023-05-23T03:15:16;0.10;;;0.10;;
1180;SDS011;579;52.046;8.532;2023-05-23T03:17:42;0.10;;;0.10;;
1180;SDS011;579;52.046;8.532;2023-05-23T03:20:10;0.03;;;0.03;;
1180;SDS011;579;52.046;8.532;2023-05-23T03:22:39;0.10;;;0.10;;
1180;SDS011;579;52.046;8.532;2023-05-23T03:27:53;0.10;;;0.10;;
1180;SDS011;579;52.046;8.532;2023-05-23T03:30:20;0.10;;;0.10;;
1180;SDS011;579;52.046;8.532;2023-05-23T03:32:46;0.10;;;0.10;;
1180;SDS011;579;52.046;8.532;2023-05-23T03:35:12;0.10;;;0.10;;
1180;SDS011;579;52.046;8.532;2023-05-23T03:37:38;0.10;;;0.10;;
1180;SDS011;579;52.046;8.532;2023-05-23T03:40:05;0.10;;;0.10;;
1180;SDS011;579;52.046;8.532;2023-05-23T03:42:33;0.10;;;0.10;;
1180;SDS011;579;52.046;8.532;2023-05-23T03:50:07;0.20;;;0.20;;
1180;SDS011;579;52.046;8.532;2023-05-23T03:52:34;0.20;;;0.20;;
1180;SDS011;579;52.046;8.532;2023-05-23T03:55:00;0.30;;;0.30;;
1180;SDS011;579;52.046;8.532;2023-05-23T03:57:27;0.30;;;0.30;;
1180;SDS011;579;52.046;8.532;2023-05-23T03:59:53;0.20;;;0.20;;
1180;SDS011;579;52.046;8.532;2023-05-23T04:02:19;0.20;;;0.20;;
1180;SDS011;579;52.046;8.532;2023-05-23T04:04:46;0.20;;;0.20;;
1180;SDS011;579;52.046;8.532;2023-05-23T04:10:04;0.10;;;0.10;;
1180;SDS011;579;52.046;8.532;2023-05-23T04:12:32;0.10;;;0.10;;
1180;SDS011;579;52.046;8.532;2023-05-23T04:14:58;0.20;;;0.20;;
1180;SDS011;579;52.046;8.532;2023-05-23T04:17:24;0.28;;;0.28;;
1180;SDS011;579;52.046;8.532;2023-05-23T04:19:54;0.20;;;0.20;;
1180;SDS011;579;52.046;8.532;2023-05-23T04:22:20;0.10;;;0.10;;
1180;SDS011;579;52.046;8.532;2023-05-23T04:24:47;0.13;;;0.13;;
1180;SDS011;579;52.046;8.532;2023-05-23T04:32:33;0.20;;;0.20;;
1180;SDS011;579;52.046;8.532;2023-05-23T04:34:59;0.20;;;0.20;;
1180;SDS011;579;52.046;8.532;2023-05-23T04:37:26;0.20;;;0.20;;
1180;SDS011;579;52.046;8.532;2023-05-23T04:39:52;0.20;;;0.20;;
1180;SDS011;579;52.046;8.532;2023-05-23T04:42:19;0.20;;;0.20;;
1180;SDS011;579;52.046;8.532;2023-05-23T04:44:48;0.20;;;0.20;;
1180;SDS011;579;52.046;8.532;2023-05-23T04:47:14;0.20;;;0.20;;
1180;SDS011;579;52.046;8.532;2023-05-23T04:54:46;0.20;;;0.20;;
1180;SDS011;579;52.046;8.532;2023-05-23T04:57:13;0.10;;;0.10;;
1180;SDS011;579;52.046;8.532;2023-05-23T04:59:39;0.20;;;0.20;;
1180;SDS011;579;52.046;8.532;2023-05-23T05:02:06;0.20;;;0.20;;
1180;SDS011;579;52.046;8.532;2023-05-23T05:04:33;0.20;;;0.20;;
1180;SDS011;579;52.046;8.532;2023-05-23T05:07:00;0.20;;;0.20;;
1180;SDS011;579;52.046;8.532;2023-05-23T05:09:28;0.30;;;0.30;;
1180;SDS011;579;52.046;8.532;2023-05-23T05:16:58;0.50;;;0.50;;
1180;SDS011;579;52.046;8.532;2023-05-23T05:19:26;0.32;;;0.32;;
1180;SDS011;579;52.046;8.532;2023-05-23T05:21:52;0.30;;;0.30;;
1180;SDS011;579;52.046;8.532;2023-05-23T05:24:19;0.30;;;0.30;;
1180;SDS011;579;52.046;8.532;2023-05-23T05:26:46;0.20;;;0.20;;
1180;SDS011;579;52.046;8.532;2023-05-23T05:29:13;0.20;;;0.20;;
1180;SDS011;579;52.046;8.532;2023-05-23T05:31:39;0.30;;;0.30;;
1180;SDS011;579;52.046;8.532;2023-05-23T05:34:06;0.30;;;0.30;;
1180;SDS011;579;52.046;8.532;2023-05-23T05:41:39;0.40;;;0.40;;
1180;SDS011;579;52.046;8.532;2023-05-23T05:44:05;0.80;;;0.80;;
1180;SDS011;579;52.046;8.532;2023-05-23T05:46:33;0.50;;;0.50;;
1180;SDS011;579;52.046;8.532;2023-05-23T05:48:59;0.60;;;0.60;;
1180;SDS011;579;52.046;8.532;2023-05-23T05:51:25;0.75;;;0.75;;
1180;SDS011;579;52.046;8.532;2023-05-23T05:53:52;0.60;;;0.60;;
1180;SDS011;579;52.046;8.532;2023-05-23T05:56:18;0.50;;;0.50;;
1180;SDS011;579;52.046;8.532;2023-05-23T06:03:52;0.30;;;0.30;;
1180;SDS011;579;52.046;8.532;2023-05-23T06:06:18;0.40;;;0.40;;
1180;SDS011;579;52.046;8.532;2023-05-23T06:08:44;0.30;;;0.30;;
1180;SDS011;579;52.046;8.532;2023-05-23T06:11:11;0.30;;;0.30;;
1180;SDS011;579;52.046;8.532;2023-05-23T06:13:37;0.40;;;0.40;;
1180;SDS011;579;52.046;8.532;2023-05-23T06:16:04;0.40;;;0.40;;
1180;SDS011;579;52.046;8.532;2023-05-23T06:18:31;0.30;;;0.30;;
1180;SDS011;579;52.046;8.532;2023-05-23T06:25:49;0.20;;;0.20;;
1180;SDS011;579;52.046;8.532;2023-05-23T06:28:15;0.10;;;0.10;;
1180;SDS011;579;52.046;8.532;2023-05-23T06:30:42;0.30;;;0.30;;
1180;SDS011;579;52.046;8.532;2023-05-23T06:33:08;0.20;;;0.20;;
1180;SDS011;579;52.046;8.532;2023-05-23T06:35:35;0.20;;;0.20;;
1180;SDS011;579;52.046;8.532;2023-05-23T06:38:01;0.20;;;0.20;;
1180;SDS011;579;52.046;8.532;2023-05-23T06:40:28;0.20;;;0.20;;
1180;SDS011;579;52.046;8.532;2023-05-23T06:47:59;0.22;;;0.22;;
1180;SDS011;579;52.046;8.532;2023-05-23T06:50:25;0.38;;;0.38;;
1180;SDS011;579;52.046;8.532;2023-05-23T06:52:52;0.30;;;0.30;;
1180;SDS011;579;52.046;8.532;2023-05-23T06:55:18;0.30;;;0.30;;
1180;SDS011;579;52.046;8.532;2023-05-23T06:57:44;0.30;;;0.30;;
1180;SDS011;579;52.046;8.532;2023-05-23T07:00:12;0.20;;;0.20;;
1180;SDS011;579;52.046;8.532;2023-05-23T07:02:39;0.30;;;0.30;;
1180;SDS011;579;52.046;8.532;2023-05-23T07:10:11;0.20;;;0.20;;
1180;SDS011;579;52.046;8.532;2023-05-23T07:12:37;0.20;;;0.20;;
1180;SDS011;579;52.046;8.532;2023-05-23T07:15:04;0.30;;;0.30;;
1180;SDS011;579;52.046;8.532;2023-05-23T07:17:31;0.30;;;0.30;;
1180;SDS011;579;52.046;8.532;2023-05-23T07:19:58;0.30;;;0.30;;
1180;SDS011;579;52.046;8.532;2023-05-23T07:22:25;0.30;;;0.30;;
1180;SDS011;579;52.046;8.532;2023-05-23T07:24:52;0.30;;;0.30;;
1180;SDS011;579;52.046;8.532;2023-05-23T07:31:09;0.40;;;0.40;;
1180;SDS011;579;52.046;8.532;2023-05-23T07:33:35;0.30;;;0.30;;
1180;SDS011;579;52.046;8.532;2023-05-23T07:36:02;0.30;;;0.30;;
1180;SDS011;579;52.046;8.532;2023-05-23T07:38:28;0.30;;;0.30;;
1180;SDS011;579;52.046;8.532;2023-05-23T07:40:55;0.30;;;0.30;;
1180;SDS011;579;52.046;8.532;2023-05-23T07:43:21;0.30;;;0.30;;
1180;SDS011;579;52.046;8.532;2023-05-23T07:45:47;0.25;;;0.25;;
1180;SDS011;579;52.046;8.532;2023-05-23T07:53:19;0.35;;;0.35;;
1180;SDS011;579;52.046;8.532;2023-05-23T07:55:45;0.30;;;0.30;;
1180;SDS011;579;52.046;8.532;2023-05-23T07:58:12;0.25;;;0.25;;
1180;SDS011;579;52.046;8.532;2023-05-23T08:00:38;0.30;;;0.30;;
1180;SDS011;579;52.046;8.532;2023-05-23T08:03:05;0.30;;;0.30;;
1180;SDS011;579;52.046;8.532;2023-05-23T08:05:32;0.20;;;0.20;;
1180;SDS011;579;52.046;8.532;2023-05-23T08:07:58;0.25;;;0.25;;
1180;SDS011;579;52.046;8.532;2023-05-23T08:10:25;0.77;;;0.77;;
1180;SDS011;579;52.046;8.532;2023-05-23T08:18:02;0.22;;;0.22;;
1180;SDS011;579;52.046;8.532;2023-05-23T08:20:29;0.30;;;0.30;;
1180;SDS011;579;52.046;8.532;2023-05-23T08:22:56;0.20;;;0.20;;
1180;SDS011;579;52.046;8.532;2023-05-23T08:25:23;0.20;;;0.20;;
1180;SDS011;579;52.046;8.532;2023-05-23T08:27:49;0.20;;;0.20;;
1180;SDS011;579;52.046;8.532;2023-05-23T08:30:15;0.20;;;0.20;;
1180;SDS011;579;52.046;8.532;2023-05-23T08:32:42;0.20;;;0.20;;
1180;SDS011;579;52.046;8.532;2023-05-23T08:35:09;0.20;;;0.20;;
1180;SDS011;579;52.046;8.532;2023-05-23T08:42:40;0.20;;;0.20;;
1180;SDS011;579;52.046;8.532;2023-05-23T08:45:07;0.20;;;0.20;;
1180;SDS011;579;52.046;8.532;2023-05-23T08:47:35;0.20;;;0.20;;
1180;SDS011;579;52.046;8.532;2023-05-23T08:50:02;0.20;;;0.20;;
1180;SDS011;579;52.046;8.532;2023-05-23T08:52:31;0.30;;;0.30;;
1180;SDS011;579;52.046;8.532;2023-05-23T08:54:59;0.20;;;0.20;;
1180;SDS011;579;52.046;8.532;2023-05-23T08:57:25;0.20;;;0.20;;
1180;SDS011;579;52.046;8.532;2023-05-23T09:02:33;0.20;;;0.20;;
1180;SDS011;579;52.046;8.532;2023-05-23T09:04:59;0.20;;;0.20;;
1180;SDS011;579;52.046;8.532;2023-05-23T09:07:25;0.20;;;0.20;;
1180;SDS011;579;52.046;8.532;2023-05-23T09:09:53;0.20;;;0.20;;
1180;SDS011;579;52.046;8.532;2023-05-23T09:12:20;0.32;;;0.32;;
1180;SDS011;579;52.046;8.532;2023-05-23T09:14:47;0.20;;;0.20;;
1180;SDS011;579;52.046;8.532;2023-05-23T09:17:15;0.25;;;0.25;;
1180;SDS011;579;52.046;8.532;2023-05-23T09:24:49;0.20;;;0.20;;
1180;SDS011;579;52.046;8.532;2023-05-23T09:27:16;0.30;;;0.30;;
1180;SDS011;579;52.046;8.532;2023-05-23T09:29:42;0.20;;;0.20;;
1180;SDS011;579;52.046;8.532;2023-05-23T09:32:12;0.25;;;0.25;;
1180;SDS011;579;52.046;8.532;2023-05-23T09:34:40;0.20;;;0.20;;
1180;SDS011;579;52.046;8.532;2023-05-23T09:37:07;0.20;;;0.20;;
1180;SDS011;579;52.046;8.532;2023-05-23T09:39:37;0.20;;;0.20;;
1180;SDS011;579;52.046;8.532;2023-05-23T09:45:16;0.30;;;0.30;;
1180;SDS011;579;52.046;8.532;2023-05-23T09:47:47;0.20;;;0.20;;
1180;SDS011;579;52.046;8.532;2023-05-23T09:50:15;0.20;;;0.20;;
1180;SDS011;579;52.046;8.532;2023-05-23T09:52:41;0.20;;;0.20;;
1180;SDS011;579;52.046;8.532;2023-05-23T09:55:08;0.20;;;0.20;;
1180;SDS011;579;52.046;8.532;2023-05-23T09:57:35;0.30;;;0.30;;
1180;SDS011;579;52.046;8.532;2023-05-23T10:00:05;0.30;;;0.30;;
1180;SDS011;579;52.046;8.532;2023-05-23T10:05:33;0.30;;;0.30;;
1180;SDS011;579;52.046;8.532;2023-05-23T10:08:04;0.20;;;0.20;;
1180;SDS011;579;52.046;8.532;2023-05-23T10:10:43;0.20;;;0.20;;
1180;SDS011;579;52.046;8.532;2023-05-23T10:13:56;0.20;;;0.20;;
1180;SDS011;579;52.046;8.532;2023-05-23T10:16:26;0.20;;;0.20;;
1180;SDS011;579;52.046;8.532;2023-05-23T10:19:05;0.20;;;0.20;;
1180;SDS011;579;52.046;8.532;2023-05-23T10:21:39;0.20;;;0.20;;
1180;SDS011;579;52.046;8.532;2023-05-23T10:29:09;0.10;;;0.10;;
1180;SDS011;579;52.046;8.532;2023-05-23T10:31:35;0.20;;;0.20;;
1180;SDS011;579;52.046;8.532;2023-05-23T10:34:03;0.10;;;0.10;;
1180;SDS011;579;52.046;8.532;2023-05-23T10:36:43;0.20;;;0.20;;
1180;SDS011;579;52.046;8.532;2023-05-23T10:39:19;0.10;;;0.10;;
1180;SDS011;579;52.046;8.532;2023-05-23T10:41:58;0.10;;;0.10;;
1180;SDS011;579;52.046;8.532;2023-05-23T10:44:28;0.20;;;0.20;;
1180;SDS011;579;52.046;8.532;2023-05-23T10:49:37;0.10;;;0.10;;
1180;SDS011;579;52.046;8.532;2023-05-23T10:52:05;0.10;;;0.10;;
1180;SDS011;579;52.046;8.532;2023-05-23T10:54:33;0.30;;;0.30;;
1180;SDS011;579;52.046;8.532;2023-05-23T10:57:03;0.10;;;0.10;;
1180;SDS011;579;52.046;8.532;2023-05-23T10:59:30;0.10;;;0.10;;
1180;SDS011;579;52.046;8.532;2023-05-23T11:01:57;0.20;;;0.20;;
1180;SDS011;579;52.046;8.532;2023-05-23T11:04:26;0.20;;;0.20;;
1180;SDS011;579;52.046;8.532;2023-05-23T11:14:07;0.30;;;0.30;;
1180;SDS011;579;52.046;8.532;2023-05-23T11:16:38;0.30;;;0.30;;
1180;SDS011;579;52.046;8.532;2023-05-23T11:19:22;0.20;;;0.20;;
1180;SDS011;579;52.046;8.532;2023-05-23T11:21:52;0.20;;;0.20;;
1180;SDS011;579;52.046;8.532;2023-05-23T11:24:21;0.20;;;0.20;;
1180;SDS011;579;52.046;8.532;2023-05-23T11:26:51;0.20;;;0.20;;
1180;SDS011;579;52.046;8.532;2023-05-23T11:29:19;0.30;;;0.30;;
1180;SDS011;579;52.046;8.532;2023-05-23T11:31:46;0.20;;;0.20;;
1180;SDS011;579;52.046;8.532;2023-05-23T11:38:40;0.30;;;0.30;;
1180;SDS011;579;52.046;8.532;2023-05-23T11:41:07;0.22;;;0.22;;
1180;SDS011;579;52.046;8.532;2023-05-23T11:43:33;0.20;;;0.20;;
1180;SDS011;579;52.046;8.532;2023-05-23T11:46:06;0.40;;;0.40;;
1180;SDS011;579;52.046;8.532;2023-05-23T11:48:32;0.20;;;0.20;;
1180;SDS011;579;52.046;8.532;2023-05-23T11:50:59;0.20;;;0.20;;
1180;SDS011;579;52.046;8.532;2023-05-23T11:53:27;0.30;;;0.30;;
1180;SDS011;579;52.046;8.532;2023-05-23T11:55:54;0.10;;;0.10;;
1180;SDS011;579;52.046;8.532;2023-05-23T12:03:27;0.30;;;0.30;;
1180;SDS011;579;52.046;8.532;2023-05-23T12:05:54;0.30;;;0.30;;
1180;SDS011;579;52.046;8.532;2023-05-23T12:08:20;0.20;;;0.20;;
1180;SDS011;579;52.046;8.532;2023-05-23T12:10:50;0.20;;;0.20;;
1180;SDS011;579;52.046;8.532;2023-05-23T12:13:18;0.20;;;0.20;;
1180;SDS011;579;52.046;8.532;2023-05-23T12:15:44;0.20;;;0.20;;
1180;SDS011;579;52.046;8.532;2023-05-23T12:18:11;0.20;;;0.20;;
1180;SDS011;579;52.046;8.532;2023-05-23T12:20:40;0.30;;;0.30;;
1180;SDS011;579;52.046;8.532;2023-05-23T12:28:09;0.38;;;0.38;;
1180;SDS011;579;52.046;8.532;2023-05-23T12:30:40;0.30;;;0.30;;
1180;SDS011;579;52.046;8.532;2023-05-23T12:33:07;0.30;;;0.30;;
1180;SDS011;579;52.046;8.532;2023-05-23T12:35:34;0.40;;;0.40;;
1180;SDS011;579;52.046;8.532;2023-05-23T12:38:01;0.30;;;0.30;;
1180;SDS011;579;52.046;8.532;2023-05-23T12:40:27;0.30;;;0.30;;
1180;SDS011;579;52.046;8.532;2023-05-23T12:42:54;0.40;;;0.40;;
1180;SDS011;579;52.046;8.532;2023-05-23T12:45:22;0.20;;;0.20;;
1180;SDS011;579;52.046;8.532;2023-05-23T12:52:40;0.30;;;0.30;;
1180;SDS011;579;52.046;8.532;2023-05-23T12:55:07;0.30;;;0.30;;
1180;SDS011;579;52.046;8.532;2023-05-23T12:57:35;0.50;;;0.50;;
1180;SDS011;579;52.046;8.532;2023-05-23T13:00:02;0.30;;;0.30;;
1180;SDS011;579;52.046;8.532;2023-05-23T13:02:30;0.30;;;0.30;;
1180;SDS011;579;52.046;8.532;2023-05-23T13:04:57;0.40;;;0.40;;
1180;SDS011;579;52.046;8.532;2023-05-23T13:07:23;0.30;;;0.30;;
1180;SDS011;579;52.046;8.532;2023-05-23T13:14:54;0.30;;;0.30;;
1180;SDS011;579;52.046;8.532;2023-05-23T13:17:21;0.43;;;0.43;;
1180;SDS011;579;52.046;8.532;2023-05-23T13:19:48;0.35;;;0.35;;
1180;SDS011;579;52.046;8.532;2023-05-23T13:22:14;0.40;;;0.40;;
1180;SDS011;579;52.046;8.532;2023-05-23T13:24:40;0.40;;;0.40;;
1180;SDS011;579;52.046;8.532;2023-05-23T13:27:07;0.60;;;0.60;;
1180;SDS011;579;52.046;8.532;2023-05-23T13:29:34;0.40;;;0.40;;
1180;SDS011;579;52.046;8.532;2023-05-23T13:37:04;0.40;;;0.40;;
1180;SDS011;579;52.046;8.532;2023-05-23T13:39:30;0.45;;;0.45;;
1180;SDS011;579;52.046;8.532;2023-05-23T13:41:56;0.40;;;0.40;;
1180;SDS011;579;52.046;8.532;2023-05-23T13:44:23;0.40;;;0.40;;
1180;SDS011;579;52.046;8.532;2023-05-23T13:46:49;0.32;;;0.32;;
1180;SDS011;579;52.046;8.532;2023-05-23T13:49:15;0.40;;;0.40;;
1180;SDS011;579;52.046;8.532;2023-05-23T13:51:41;0.22;;;0.22;;
1180;SDS011;579;52.046;8.532;2023-05-23T13:59:13;0.20;;;0.20;;
1180;SDS011;579;52.046;8.532;2023-05-23T14:01:44;0.47;;;0.47;;
1180;SDS011;579;52.046;8.532;2023-05-23T14:04:11;0.32;;;0.32;;
1180;SDS011;579;52.046;8.532;2023-05-23T14:06:37;0.40;;;0.40;;
1180;SDS011;579;52.046;8.532;2023-05-23T14:09:04;0.50;;;0.50;;
1180;SDS011;579;52.046;8.532;2023-05-23T14:11:30;0.40;;;0.40;;
1180;SDS011;579;52.046;8.532;2023-05-23T14:13:57;0.40;;;0.40;;
1180;SDS011;579;52.046;8.532;2023-05-23T14:21:29;0.32;;;0.32;;
1180;SDS011;579;52.046;8.532;2023-05-23T14:23:55;0.40;;;0.40;;
1180;SDS011;579;52.046;8.532;2023-05-23T14:26:22;0.30;;;0.30;;
1180;SDS011;579;52.046;8.532;2023-05-23T14:28:48;0.38;;;0.38;;
1180;SDS011;579;52.046;8.532;2023-05-23T14:31:14;0.38;;;0.38;;
1180;SDS011;579;52.046;8.532;2023-05-23T14:33:40;0.30;;;0.30;;
1180;SDS011;579;52.046;8.532;2023-05-23T14:36:07;0.20;;;0.20;;
1180;SDS011;579;52.046;8.532;2023-05-23T14:43:39;0.30;;;0.30;;
1180;SDS011;579;52.046;8.532;2023-05-23T14:46:05;0.40;;;0.40;;
1180;SDS011;579;52.046;8.532;2023-05-23T14:48:31;0.20;;;0.20;;
1180;SDS011;579;52.046;8.532;2023-05-23T14:50:58;0.35;;;0.35;;
1180;SDS011;579;52.046;8.532;2023-05-23T14:53:25;0.32;;;0.32;;
1180;SDS011;579;52.046;8.532;2023-05-23T14:55:52;0.30;;;0.30;;
1180;SDS011;579;52.046;8.532;2023-05-23T14:58:20;0.20;;;0.20;;
1180;SDS011;579;52.046;8.532;2023-05-23T15:03:27;0.30;;;0.30;;
1180;SDS011;579;52.046;8.532;2023-05-23T15:05:53;0.38;;;0.38;;
1180;SDS011;579;52.046;8.532;2023-05-23T15:08:19;0.30;;;0.30;;
1180;SDS011;579;52.046;8.532;2023-05-23T15:10:45;0.20;;;0.20;;
1180;SDS011;579;52.046;8.532;2023-05-23T15:13:12;0.40;;;0.40;;
1180;SDS011;579;52.046;8.532;2023-05-23T15:15:38;0.30;;;0.30;;
1180;SDS011;579;52.046;8.532;2023-05-23T15:18:05;0.20;;;0.20;;
1180;SDS011;579;52.046;8.532;2023-05-23T15:26:09;0.40;;;0.40;;
1180;SDS011;579;52.046;8.532;2023-05-23T15:28:35;0.30;;;0.30;;
1180;SDS011;579;52.046;8.532;2023-05-23T15:31:01;1.10;;;1.10;;
1180;SDS011;579;52.046;8.532;2023-05-23T15:33:27;1.02;;;1.02;;
1180;SDS011;579;52.046;8.532;2023-05-23T15:35:54;0.90;;;0.90;;
1180;SDS011;579;52.046;8.532;2023-05-23T15:38:22;0.90;;;0.90;;
1180;SDS011;579;52.046;8.532;2023-05-23T15:40:49;1.15;;;1.15;;
1180;SDS011;579;52.046;8.532;2023-05-23T15:43:19;0.82;;;0.82;;
1180;SDS011;579;52.046;8.532;2023-05-23T15:50:11;0.82;;;0.82;;
1180;SDS011;579;52.046;8.532;2023-05-23T15:52:37;0.88;;;0.88;;
1180;SDS011;579;52.046;8.532;2023-05-23T15:55:04;0.70;;;0.70;;
1180;SDS011;579;52.046;8.532;2023-05-23T15:57:31;0.98;;;0.98;;
1180;SDS011;579;52.046;8.532;2023-05-23T15:59:58;0.70;;;0.70;;
1180;SDS011;579;52.046;8.532;2023-05-23T16:02:24;1.05;;;1.05;;
1180;SDS011;579;52.046;8.532;2023-05-23T16:04:50;0.80;;;0.80;;
1180;SDS011;579;52.046;8.532;2023-05-23T16:12:17;0.40;;;0.40;;
1180;SDS011;579;52.046;8.532;2023-05-23T16:14:44;0.20;;;0.20;;
1180;SDS011;579;52.046;8.532;2023-05-23T16:17:10;0.45;;;0.45;;
1180;SDS011;579;52.046;8.532;2023-05-23T16:19:36;0.30;;;0.30;;
1180;SDS011;579;52.046;8.532;2023-05-23T16:22:02;0.40;;;0.40;;
1180;SDS011;579;52.046;8.532;2023-05-23T16:24:29;0.40;;;0.40;;
1180;SDS011;579;52.046;8.532;2023-05-23T16:26:55;0.35;;;0.35;;
1180;SDS011;579;52.046;8.532;2023-05-23T16:36:45;0.50;;;0.50;;
1180;SDS011;579;52.046;8.532;2023-05-23T16:39:11;0.57;;;0.57;;
1180;SDS011;579;52.046;8.532;2023-05-23T16:41:38;1.00;;;1.00;;
1180;SDS011;579;52.046;8.532;2023-05-23T16:44:04;1.30;;;1.30;;
1180;SDS011;579;52.046;8.532;2023-05-23T16:46:30;1.20;;;1.20;;
1180;SDS011;579;52.046;8.532;2023-05-23T16:48:56;1.27;;;1.27;;
1180;SDS011;579;52.046;8.532;2023-05-23T16:51:23;1.20;;;1.20;;
1180;SDS011;579;52.046;8.532;2023-05-23T16:56:26;0.30;;;0.30;;
1180;SDS011;579;52.046;8.532;2023-05-23T16:58:54;0.50;;;0.50;;
1180;SDS011;579;52.046;8.532;2023-05-23T17:01:21;0.40;;;0.40;;
1180;SDS011;579;52.046;8.532;2023-05-23T17:03:47;0.40;;;0.40;;
1180;SDS011;579;52.046;8.532;2023-05-23T17:06:13;0.40;;;0.40;;
1180;SDS011;579;52.046;8.532;2023-05-23T17:08:39;0.40;;;0.40;;
1180;SDS011;579;52.046;8.532;2023-05-23T17:11:06;0.60;;;0.60;;
1180;SDS011;579;52.046;8.532;2023-05-23T17:17:42;0.38;;;0.38;;
1180;SDS011;579;52.046;8.532;2023-05-23T17:20:09;0.45;;;0.45;;
1180;SDS011;579;52.046;8.532;2023-05-23T17:22:36;0.55;;;0.55;;
1180;SDS011;579;52.046;8.532;2023-05-23T17:25:02;0.40;;;0.40;;
1180;SDS011;579;52.046;8.532;2023-05-23T17:27:30;0.50;;;0.50;;
1180;SDS011;579;52.046;8.532;2023-05-23T17:29:56;0.45;;;0.45;;
1180;SDS011;579;52.046;8.532;2023-05-23T17:32:23;0.40;;;0.40;;
1180;SDS011;579;52.046;8.532;2023-05-23T17:37:30;0.43;;;0.43;;
1180;SDS011;579;52.046;8.532;2023-05-23T17:39:56;0.30;;;0.30;;
1180;SDS011;579;52.046;8.532;2023-05-23T17:42:23;0.45;;;0.45;;
1180;SDS011;579;52.046;8.532;2023-05-23T17:44:49;0.40;;;0.40;;
1180;SDS011;579;52.046;8.532;2023-05-23T17:47:15;0.40;;;0.40;;
1180;SDS011;579;52.046;8.532;2023-05-23T17:49:42;0.70;;;0.70;;
1180;SDS011;579;52.046;8.532;2023-05-23T17:52:08;0.90;;;0.90;;
1180;SDS011;579;52.046;8.532;2023-05-23T17:59:43;0.68;;;0.68;;
1180;SDS011;579;52.046;8.532;2023-05-23T18:02:10;0.70;;;0.70;;
1180;SDS011;579;52.046;8.532;2023-05-23T18:04:37;0.60;;;0.60;;
1180;SDS011;579;52.046;8.532;2023-05-23T18:07:03;0.68;;;0.68;;
1180;SDS011;579;52.046;8.532;2023-05-23T18:09:30;0.75;;;0.75;;
1180;SDS011;579;52.046;8.532;2023-05-23T18:11:56;0.60;;;0.60;;
1180;SDS011;579;52.046;8.532;2023-05-23T18:14:23;0.93;;;0.93;;
1180;SDS011;579;52.046;8.532;2023-05-23T18:21:50;0.38;;;0.38;;
1180;SDS011;579;52.046;8.532;2023-05-23T18:24:16;0.50;;;0.50;;
1180;SDS011;579;52.046;8.532;2023-05-23T18:26:43;0.45;;;0.45;;
1180;SDS011;579;52.046;8.532;2023-05-23T18:29:09;0.30;;;0.30;;
1180;SDS011;579;52.046;8.532;2023-05-23T18:31:35;0.60;;;0.60;;
1180;SDS011;579;52.046;8.532;2023-05-23T18:34:02;0.40;;;0.40;;
1180;SDS011;579;52.046;8.532;2023-05-23T18:36:28;0.50;;;0.50;;
1180;SDS011;579;52.046;8.532;2023-05-23T18:38:56;0.50;;;0.50;;
1180;SDS011;579;52.046;8.532;2023-05-23T18:46:29;0.93;;;0.93;;
1180;SDS011;579;52.046;8.532;2023-05-23T18:48:55;0.90;;;0.90;;
1180;SDS011;579;52.046;8.532;2023-05-23T18:51:22;1.20;;;1.20;;
1180;SDS011;579;52.046;8.532;2023-05-23T18:53:48;0.70;;;0.70;;
1180;SDS011;579;52.046;8.532;2023-05-23T18:56:14;0.13;;;0.13;;
1180;SDS011;579;52.046;8.532;2023-05-23T18:58:41;0.10;;;0.10;;
1180;SDS011;579;52.046;8.532;2023-05-23T19:01:07;0.10;;;0.10;;
1180;SDS011;579;52.046;8.532;2023-05-23T19:08:40;0.00;;;0.00;;
1180;SDS011;579;52.046;8.532;2023-05-23T19:11:06;0.10;;;0.10;;
1180;SDS011;579;52.046;8.532;2023-05-23T19:13:34;0.00;;;0.00;;